« 美ら島エアーフェスタ2017【初日6終】 那覇空港 2017/12/9 sat | トップページ | 撮収 富山空港 2017/12/30 sat »

2017/12/29

美ら島エアーフェスタ2017【二日目】 那覇空港 2017/12/10 sun

美ら島エアーフェスタ二日目です。昨日より青空が広がって、暖かい朝です。

ROAH 100100Z 08004KT 040V140 9999 FEW040 BKN/// 21/13 Q1017

20171210_roah_100nahaab

10時開門に併せて正面到着 ゆっくり出発です

20171210_roah_101f728879

まずは、昨日訪問できなかった慰霊碑に一参り。

20171210_roah_102ja8992

今日の展示はジンベイ。その後ろをサクラが出発していきます。

20171210_roah_103f428830

と、思いきや、今日もお客さんが来たようだ。

20171210_roah_104hige

エプロンに入る前に髭の隊長さん発見。後ほど名刺をいただき握手してもらいました。

ROAH 100130Z 07005KT 020V120 9999 FEW040 BKN/// 21/12 Q1017

20171210_roah_105jg43116

幟がはためく第十五ヘリコプター隊。60は第一飛行隊ながや。

20171210_roah_106h574492

チヌークに新しいJr発見

20171210_roah_107t165801

今日の合同編隊は・・ T-4

20171210_roah_108t165801

16-5801 T-4 SWAF C41

20171210_roah_109t665743

66-5743 T-4 SWAF C42

20171210_roah_110b16207

EVA113 ROAH-RCTP B-16207 A321-211

キティちゃんとピカチュー

20171210_roah_111f828902

今日も大天狗さんは、同じ位置。

20171210_roah_112ja809a

ANA763 RJOO-ROAH JA809A B787-8

20171210_roah_113tsunahiki

F-15と綱引き中

20171210_roah_114t165801

今日は南西空支援飛行隊がフライト

20171210_roah_115ja8939

JA8939 B737-4Q3

20171210_roah_116sws

ジンベイさんの後ろでは、南西航空施設隊が重機の体験搭乗

20171210_roah_117ant

大きなお皿

ROAH 100200Z 09004KT 050V120 9999 FEW040 BKN/// 21/12 Q1017

20171210_roah_118pac3

PAC-3は、第5高射群

20171210_roah_119ja01rk

JTA557 ROAH-ROMY JA01RK B737-8Q3

20171210_roah_120ssam

第9基地防空隊の11式短距離地対空誘導弾

20171210_roah_121vads

VADS改

20171210_roah_122m5082

今日の海自さんはダブルサンタさん

20171210_roah_123ja8571

JA8571 F900 JCG

20171210_roah_124hl7788

AAR169 ROAH-RKPK HL7788 A320-232

20171210_roah_125tank

歴戦の燃料タンク

20171210_roah_126f428830

朝出撃したアラート機が帰ってきた

20171210_roah_127f428830

42-8830 F-15J 303SQ L25

20171210_roah_128f328827

32-8827 F-15J 303SQ L26

20171210_roah_129jcg

格納庫で海保の展示を見学

20171210_roah_130jcg_2

うみまる君は、たてかん

20171210_roah_131jcg

モデル展示

20171210_roah_132jcg

うーみんは、なごやかに談笑中

ROAH 100230Z 01005KT 330V040 9999 FEW040 BKN/// 22/13 Q1017

20171210_roah_133t165801

#801

20171210_roah_134t665743

#743

20171210_roah_135rq

救難隊では、ちびっ子吊り上げ

20171210_roah_136m5082

VP-5の展示をお勉強

20171210_roah_137m5082

あいかわらず賑わっています。

20171210_roah_138hm

あ、ミニチヌークが歩いている

20171210_roah_139aw9

那覇基地の展示ブース 歴史本を頂きました。

20171210_roah_140aw9

9WG

20171210_roah_141aw9

TropicalEagle

20171210_roah_142funkey

今日も逢いましたピエロのファンキーさん

20171210_roah_143jingei

JTAブースには、ジンベイさん

20171210_roah_144jingei

おい、サクラ たっしゃだね これ書いてる時点で新サクラさんは沖縄に着いてます。

ROAH 100300Z 33008KT 310V010 9999 FEW040 BKN/// 22/12 Q1017 RMK 1SC040 A3004

20171210_roah_145jg43119

JG43119 UH-60JA XV

回転翼展示ですが、各単機で離陸です。

20171210_roah_146tengu

天狗道

20171210_roah_147h574493

57-4493 CH-47J(LR) NAHA-HT

救難隊は展示自粛中で60はフライトしません

20171210_roah_148ch

ミニチヌークがそろっていました

20171210_roah_149h574493

やっぱり、漫画チックでかわいい

20171210_roah_150f204sq

第ニ○四飛行隊は、隊舎前で絶賛記念撮影

20171210_roah_151f828902

82-8902 F-15J 204SQ

20171210_roah_152ja8939

新旧ジンベイさん

20171210_roah_153b18903

お、新顔

ROAH 100330Z 36009KT 9999 FEW040 BKN/// 22/12 Q1016

20171210_roah_154b18903

CAL121 ROAH-RCTP B-18903 A350-941

20171210_roah_155t965777

最後にラッキーさんを拝んで

20171210_roah_156t965777

来年はいるかさんが見れますでしょうか・・・

20171210_roah_157irei

エプロンを離脱して、再度8枚鷲さんを拝んで・・

20171210_roah_158yunta

今年気になった所 基地見学で入れるのかな?

20171210_roah_159nahaab

午前のみで那覇基地を離脱 お世話になりました。

ROAH 100400Z 34009KT 9999 FEW040 BKN/// 22/11 Q1016 RMK 1SC040 A3001

|

« 美ら島エアーフェスタ2017【初日6終】 那覇空港 2017/12/9 sat | トップページ | 撮収 富山空港 2017/12/30 sat »

那覇空港」カテゴリの記事

コメント

コメントを書く



(ウェブ上には掲載しません)


コメントは記事投稿者が公開するまで表示されません。



トラックバック


この記事へのトラックバック一覧です: 美ら島エアーフェスタ2017【二日目】 那覇空港 2017/12/10 sun:

« 美ら島エアーフェスタ2017【初日6終】 那覇空港 2017/12/9 sat | トップページ | 撮収 富山空港 2017/12/30 sat »